Time;durP1;ratioP1;P1;durP2;ratioP2;P2;SDS_P1;SDS_P2;PMS_P1;PMS_P2;Temp;Humidity;BMP_temperature;BMP_pressure;BME280_temperature;BME280_humidity;BME280_pressure;Samples;Min_cycle;Max_cycle;Signal;HPM_P1;HPM_P2
2022/09/02 00:00:49;;;;;;;1.58;0.77;;;;;;;;;;4994123;28;20215;-69
2022/09/02 00:03:15;;;;;;;1.33;0.80;;;;;;;;;;5012563;28;20227;-69
2022/09/02 00:05:41;;;;;;;1.80;0.87;;;;;;;;;;5008435;28;20231;-69
2022/09/02 00:08:07;;;;;;;0.97;0.80;;;;;;;;;;5035391;28;20279;-69
2022/09/02 00:10:36;;;;;;;0.87;0.80;;;;;;;;;;4990091;28;20662;-68
2022/09/02 00:13:02;;;;;;;1.00;0.87;;;;;;;;;;5013383;28;20693;-69
2022/09/02 00:15:28;;;;;;;2.10;1.10;;;;;;;;;;5034696;28;20258;-69
2022/09/02 00:17:56;;;;;;;0.88;0.80;;;;;;;;;;5038016;28;20227;-69
2022/09/02 00:20:21;;;;;;;1.23;0.80;;;;;;;;;;5016420;28;20228;-69
2022/09/02 00:22:47;;;;;;;1.90;0.97;;;;;;;;;;5031366;28;20228;-70
2022/09/02 00:25:12;;;;;;;0.70;0.70;;;;;;;;;;5019296;28;20235;-69
2022/09/02 00:27:38;;;;;;;0.80;0.80;;;;;;;;;;5023107;28;20219;-69
2022/09/02 00:30:04;;;;;;;0.70;0.70;;;;;;;;;;5009024;28;20228;-69
2022/09/02 00:32:32;;;;;;;0.70;0.70;;;;;;;;;;5011731;28;20223;-69
2022/09/02 00:34:58;;;;;;;0.73;0.73;;;;;;;;;;5019200;28;20235;-70
2022/09/02 00:37:25;;;;;;;1.43;0.70;;;;;;;;;;5003005;28;20649;-70
2022/09/02 00:39:52;;;;;;;0.70;0.70;;;;;;;;;;5024093;28;20729;-69
2022/09/02 00:42:21;;;;;;;2.20;0.80;;;;;;;;;;5002916;28;20228;-69
2022/09/02 00:44:47;;;;;;;1.40;0.80;;;;;;;;;;5003356;28;20227;-70
2022/09/02 00:47:15;;;;;;;1.00;0.90;;;;;;;;;;4990543;28;20220;-70
2022/09/02 00:49:46;;;;;;;2.37;1.10;;;;;;;;;;5004113;28;20269;-70
2022/09/02 00:52:23;;;;;;;1.37;1.10;;;;;;;;;;5002252;28;20227;-69
2022/09/02 00:54:54;;;;;;;1.30;1.20;;;;;;;;;;5020095;28;20231;-69
2022/09/02 00:57:22;;;;;;;1.65;1.10;;;;;;;;;;4994754;28;20232;-69
2022/09/02 00:59:53;;;;;;;1.13;0.90;;;;;;;;;;5011297;28;20315;-69
2022/09/02 01:02:22;;;;;;;1.23;0.80;;;;;;;;;;5002271;28;20346;-69
2022/09/02 01:04:54;;;;;;;2.10;0.80;;;;;;;;;;5001793;28;20261;-69
2022/09/02 01:07:21;;;;;;;1.58;0.88;;;;;;;;;;4998170;28;20224;-69
2022/09/02 01:09:46;;;;;;;0.70;0.70;;;;;;;;;;5036930;28;20284;-69
2022/09/02 01:12:15;;;;;;;0.73;0.73;;;;;;;;;;5002898;28;20240;-70
2022/09/02 01:14:40;;;;;;;0.67;0.67;;;;;;;;;;5039024;28;20223;-69
2022/09/02 01:17:06;;;;;;;0.73;0.73;;;;;;;;;;5008779;28;20227;-69
2022/09/02 01:19:34;;;;;;;1.53;0.80;;;;;;;;;;5029441;28;20288;-69
2022/09/02 01:22:02;;;;;;;1.00;0.70;;;;;;;;;;5001377;28;20227;-70
2022/09/02 01:24:29;;;;;;;0.87;0.87;;;;;;;;;;5028311;28;20247;-69
2022/09/02 01:26:58;;;;;;;0.97;0.90;;;;;;;;;;5024004;28;20235;-70
2022/09/02 01:29:26;;;;;;;0.93;0.87;;;;;;;;;;5016364;28;20227;-70
2022/09/02 01:31:57;;;;;;;1.00;0.82;;;;;;;;;;5005317;28;20223;-70
2022/09/02 01:34:22;;;;;;;1.00;0.80;;;;;;;;;;5006806;28;20350;-69
2022/09/02 01:36:48;;;;;;;1.33;0.90;;;;;;;;;;5006480;28;20274;-70
2022/09/02 01:39:14;;;;;;;1.00;0.90;;;;;;;;;;4987632;28;20250;-69
2022/09/02 01:41:42;;;;;;;0.87;0.87;;;;;;;;;;5011083;28;20248;-69
2022/09/02 01:44:08;;;;;;;0.93;0.90;;;;;;;;;;5004025;28;20793;-70
2022/09/02 01:46:33;;;;;;;0.87;0.70;;;;;;;;;;4992420;28;20223;-69
2022/09/02 01:48:59;;;;;;;0.80;0.73;;;;;;;;;;4968872;28;20220;-69
2022/09/02 01:51:26;;;;;;;1.30;0.90;;;;;;;;;;5036862;28;20227;-70
2022/09/02 01:53:52;;;;;;;1.02;0.90;;;;;;;;;;5011284;28;20329;-70
2022/09/02 01:56:17;;;;;;;0.80;0.80;;;;;;;;;;5025788;28;20729;-69
2022/09/02 01:58:43;;;;;;;1.30;0.90;;;;;;;;;;5013275;28;20315;-70
2022/09/02 02:01:10;;;;;;;1.23;0.80;;;;;;;;;;4998512;28;20242;-70
2022/09/02 02:03:38;;;;;;;3.73;1.20;;;;;;;;;;4986781;28;20224;-69
2022/09/02 02:06:10;;;;;;;1.17;0.90;;;;;;;;;;5034004;28;20219;-69
2022/09/02 02:08:37;;;;;;;1.10;0.90;;;;;;;;;;5009536;28;20216;-69
2022/09/02 02:11:03;;;;;;;0.95;0.90;;;;;;;;;;5005008;28;20227;-70
2022/09/02 02:13:32;;;;;;;2.03;1.00;;;;;;;;;;5037626;28;20228;-70
2022/09/02 02:16:00;;;;;;;3.60;1.00;;;;;;;;;;5006764;28;20233;-69
2022/09/02 02:18:28;;;;;;;0.80;0.80;;;;;;;;;;5034863;28;20232;-70
2022/09/02 02:20:54;;;;;;;0.90;0.90;;;;;;;;;;5003046;28;20284;-70
2022/09/02 02:23:23;;;;;;;1.13;1.03;;;;;;;;;;5020988;28;20797;-70
2022/09/02 02:25:48;;;;;;;1.40;1.03;;;;;;;;;;5011401;28;20266;-70
2022/09/02 02:28:14;;;;;;;1.00;1.00;;;;;;;;;;5014579;28;20228;-70
2022/09/02 02:30:40;;;;;;;1.13;0.83;;;;;;;;;;5010169;28;20563;-70
2022/09/02 02:33:12;;;;;;;1.50;1.20;;;;;;;;;;5019368;28;20216;-70
2022/09/02 02:35:40;;;;;;;1.10;0.83;;;;;;;;;;4983699;28;20311;-70
2022/09/02 02:38:10;;;;;;;2.17;1.20;;;;;;;;;;5018364;28;20244;-70
2022/09/02 02:40:36;;;;;;;0.73;0.73;;;;;;;;;;5008263;28;20222;-70
2022/09/02 02:43:02;;;;;;;2.63;1.20;;;;;;;;;;5008397;28;21067;-70
2022/09/02 02:45:30;;;;;;;1.17;1.02;;;;;;;;;;5026383;28;20293;-71
2022/09/02 02:47:58;;;;;;;1.93;1.00;;;;;;;;;;5002253;28;20935;-70
2022/09/02 02:50:27;;;;;;;1.33;0.90;;;;;;;;;;5035193;28;20219;-70
2022/09/02 02:52:55;;;;;;;1.00;0.90;;;;;;;;;;5004435;28;20291;-71
2022/09/02 02:55:23;;;;;;;0.83;0.83;;;;;;;;;;5001874;28;20243;-71
2022/09/02 02:57:52;;;;;;;0.93;0.90;;;;;;;;;;5017549;28;20219;-71
2022/09/02 03:00:19;;;;;;;0.80;0.80;;;;;;;;;;4997029;28;20240;-70
2022/09/02 03:02:46;;;;;;;1.10;1.00;;;;;;;;;;5012091;28;20612;-71
2022/09/02 03:05:20;;;;;;;2.23;1.07;;;;;;;;;;4995163;28;20660;-70
2022/09/02 03:07:46;;;;;;;1.53;0.90;;;;;;;;;;5032030;28;20322;-70
2022/09/02 03:10:13;;;;;;;2.13;1.00;;;;;;;;;;4998875;28;20234;-70
2022/09/02 03:12:46;;;;;;;1.23;1.13;;;;;;;;;;5009999;28;21196;-70
2022/09/02 03:15:15;;;;;;;1.00;0.90;;;;;;;;;;5007018;28;20220;-69
2022/09/02 03:17:45;;;;;;;2.37;1.10;;;;;;;;;;4971897;28;20593;-70
2022/09/02 03:20:11;;;;;;;1.30;1.10;;;;;;;;;;5016741;28;20286;-69
2022/09/02 03:22:42;;;;;;;0.97;0.97;;;;;;;;;;5001945;28;20600;-70
2022/09/02 03:25:11;;;;;;;1.17;0.90;;;;;;;;;;4981330;28;20239;-70
2022/09/02 03:27:37;;;;;;;2.33;1.10;;;;;;;;;;4992015;28;20640;-70
2022/09/02 03:30:09;;;;;;;2.10;0.93;;;;;;;;;;5020493;28;20223;-71
2022/09/02 03:32:37;;;;;;;0.97;0.73;;;;;;;;;;5006401;28;20694;-70
2022/09/02 03:35:06;;;;;;;0.93;0.90;;;;;;;;;;5005155;28;20215;-70
2022/09/02 03:37:33;;;;;;;1.00;1.00;;;;;;;;;;5027180;28;20648;-70
2022/09/02 03:40:02;;;;;;;1.33;1.20;;;;;;;;;;5037579;28;20227;-71
2022/09/02 03:42:29;;;;;;;1.30;1.20;;;;;;;;;;4994912;28;20219;-71
2022/09/02 03:44:57;;;;;;;1.17;0.93;;;;;;;;;;5002986;28;20649;-70
2022/09/02 03:47:27;;;;;;;2.03;1.00;;;;;;;;;;5002313;28;20605;-70
2022/09/02 03:49:58;;;;;;;1.00;0.87;;;;;;;;;;5001044;28;20274;-70
2022/09/02 03:52:24;;;;;;;1.27;0.90;;;;;;;;;;5006787;28;20229;-70
2022/09/02 03:54:50;;;;;;;1.10;1.00;;;;;;;;;;4986216;28;20228;-70
2022/09/02 03:57:16;;;;;;;1.80;0.70;;;;;;;;;;5021827;28;20587;-70
2022/09/02 03:59:44;;;;;;;0.97;0.90;;;;;;;;;;5002842;28;20307;-70
2022/09/02 04:02:10;;;;;;;0.97;0.80;;;;;;;;;;4997468;28;20235;-70
2022/09/02 04:04:39;;;;;;;1.67;1.00;;;;;;;;;;5023045;28;20297;-71
2022/09/02 04:07:05;;;;;;;1.20;1.03;;;;;;;;;;5003075;28;20219;-71
2022/09/02 04:09:30;;;;;;;1.53;1.13;;;;;;;;;;5019203;28;20698;-70
2022/09/02 04:11:57;;;;;;;1.17;1.07;;;;;;;;;;4998701;28;20258;-70
2022/09/02 04:14:26;;;;;;;1.47;1.10;;;;;;;;;;4991810;28;20303;-70
2022/09/02 04:16:52;;;;;;;1.43;1.33;;;;;;;;;;5017588;28;20298;-70
2022/09/02 04:19:18;;;;;;;2.20;1.13;;;;;;;;;;5002119;28;20223;-71
2022/09/02 04:21:47;;;;;;;1.83;1.30;;;;;;;;;;4964245;28;20212;-70
2022/09/02 04:24:13;;;;;;;3.47;1.40;;;;;;;;;;5018867;28;20227;-71
2022/09/02 04:26:43;;;;;;;1.63;1.20;;;;;;;;;;5005864;28;20287;-70
2022/09/02 04:29:11;;;;;;;1.33;1.20;;;;;;;;;;5001314;28;20216;-71
2022/09/02 04:31:39;;;;;;;1.93;1.13;;;;;;;;;;5000930;28;20331;-70
2022/09/02 04:34:06;;;;;;;2.40;1.10;;;;;;;;;;5036855;28;20230;-72
2022/09/02 04:36:34;;;;;;;3.23;1.20;;;;;;;;;;5000454;28;20228;-71
2022/09/02 04:39:04;;;;;;;1.30;1.20;;;;;;;;;;4996575;28;20303;-70
2022/09/02 04:41:34;;;;;;;2.13;1.30;;;;;;;;;;5006557;28;20219;-69
2022/09/02 04:44:03;;;;;;;1.60;1.40;;;;;;;;;;4988275;28;20317;-70
2022/09/02 04:46:34;;;;;;;1.27;1.10;;;;;;;;;;5023999;28;20232;-71
2022/09/02 04:49:00;;;;;;;1.83;1.30;;;;;;;;;;5009017;28;20223;-70
2022/09/02 04:51:26;;;;;;;2.20;1.37;;;;;;;;;;4988413;28;20810;-70
2022/09/02 04:53:55;;;;;;;1.87;1.47;;;;;;;;;;4983957;28;20243;-70
2022/09/02 04:56:25;;;;;;;2.20;1.50;;;;;;;;;;5005239;28;20224;-70
2022/09/02 04:58:54;;;;;;;1.70;1.50;;;;;;;;;;5022797;28;20727;-70
2022/09/02 05:01:25;;;;;;;2.13;1.20;;;;;;;;;;5010524;28;20333;-71
2022/09/02 05:03:53;;;;;;;2.70;1.67;;;;;;;;;;5011701;28;20220;-71
2022/09/02 05:06:25;;;;;;;2.10;1.50;;;;;;;;;;5018820;28;20215;-70
2022/09/02 05:08:54;;;;;;;1.70;1.60;;;;;;;;;;5011475;28;20910;-70
2022/09/02 05:11:43;;;;;;;1.60;1.50;;;;;;;;;;5008324;28;20219;-72
2022/09/02 05:14:08;;;;;;;2.60;1.77;;;;;;;;;;5019411;28;20340;-70
2022/09/02 05:16:38;;;;;;;1.87;1.63;;;;;;;;;;5004388;28;20266;-71
2022/09/02 05:19:12;;;;;;;1.50;1.40;;;;;;;;;;4985895;28;20309;-70
2022/09/02 05:21:43;;;;;;;3.77;1.70;;;;;;;;;;4984272;28;20224;-69
2022/09/02 05:24:13;;;;;;;2.37;2.00;;;;;;;;;;5005552;28;20216;-69
2022/09/02 05:26:45;;;;;;;2.23;1.70;;;;;;;;;;5025961;28;20224;-69
2022/09/02 05:29:12;;;;;;;1.77;1.33;;;;;;;;;;5021043;28;20207;-70
2022/09/02 05:31:40;;;;;;;2.57;1.27;;;;;;;;;;5010854;28;20243;-69
2022/09/02 05:34:08;;;;;;;2.57;1.53;;;;;;;;;;5016281;28;20242;-70
2022/09/02 05:36:35;;;;;;;3.07;1.63;;;;;;;;;;4994440;28;20234;-71
2022/09/02 05:39:04;;;;;;;1.80;1.70;;;;;;;;;;5002758;28;20228;-72
2022/09/02 05:41:32;;;;;;;1.67;1.57;;;;;;;;;;4999597;28;20243;-71
2022/09/02 05:44:00;;;;;;;1.93;1.60;;;;;;;;;;4989105;28;20231;-70
2022/09/02 05:46:26;;;;;;;2.33;1.60;;;;;;;;;;4994418;28;20227;-70
2022/09/02 05:49:05;;;;;;;3.07;1.33;;;;;;;;;;5006510;28;20249;-71
2022/09/02 05:51:41;;;;;;;2.03;1.43;;;;;;;;;;5021147;28;20994;-69
2022/09/02 05:54:11;;;;;;;1.50;1.40;;;;;;;;;;5006192;28;20249;-70
2022/09/02 05:56:41;;;;;;;1.83;1.50;;;;;;;;;;5001152;28;20232;-70
2022/09/02 05:59:07;;;;;;;2.20;1.43;;;;;;;;;;5026440;28;20289;-70
2022/09/02 06:01:36;;;;;;;2.00;1.33;;;;;;;;;;4991197;28;21227;-69
2022/09/02 06:04:03;;;;;;;1.63;1.53;;;;;;;;;;4994061;28;20231;-69
2022/09/02 06:06:29;;;;;;;1.50;1.40;;;;;;;;;;4990640;28;20231;-70
2022/09/02 06:08:59;;;;;;;1.30;1.20;;;;;;;;;;4985901;28;20304;-69
2022/09/02 06:11:25;;;;;;;2.20;1.30;;;;;;;;;;5002626;28;20220;-71
2022/09/02 06:13:56;;;;;;;4.10;1.70;;;;;;;;;;5009823;28;20779;-70
2022/09/02 06:16:22;;;;;;;1.83;1.37;;;;;;;;;;5009832;28;20239;-70
2022/09/02 06:18:48;;;;;;;2.23;1.33;;;;;;;;;;5004842;28;20788;-70
2022/09/02 06:21:14;;;;;;;1.10;1.10;;;;;;;;;;5007040;28;20248;-69
2022/09/02 06:23:44;;;;;;;7.30;1.57;;;;;;;;;;4984961;28;20820;-70
2022/09/02 06:26:14;;;;;;;1.27;1.13;;;;;;;;;;5022467;28;20246;-70
2022/09/02 06:28:40;;;;;;;3.33;1.63;;;;;;;;;;4984284;28;20719;-69
2022/09/02 06:31:14;;;;;;;1.57;1.23;;;;;;;;;;5024709;28;20216;-72
2022/09/02 06:33:44;;;;;;;1.87;1.20;;;;;;;;;;5008362;28;20712;-69
2022/09/02 06:36:11;;;;;;;1.27;1.27;;;;;;;;;;4993930;28;20710;-70
2022/09/02 06:38:41;;;;;;;2.43;1.30;;;;;;;;;;4985300;28;20707;-70
2022/09/02 06:41:07;;;;;;;1.30;1.20;;;;;;;;;;4979220;28;20250;-71
2022/09/02 06:43:41;;;;;;;3.00;0.93;;;;;;;;;;4989850;28;20736;-69
2022/09/02 06:46:18;;;;;;;0.93;0.93;;;;;;;;;;5010171;28;20231;-71
2022/09/02 06:48:47;;;;;;;1.20;1.10;;;;;;;;;;5002109;28;20204;-72
2022/09/02 06:51:30;;;;;;;2.20;1.05;;;;;;;;;;5001384;28;20220;-71
2022/09/02 06:53:58;;;;;;;1.25;0.90;;;;;;;;;;5015772;28;20241;-71
2022/09/02 06:56:27;;;;;;;1.60;1.10;;;;;;;;;;4983727;28;20215;-71
2022/09/02 06:58:53;;;;;;;1.07;1.07;;;;;;;;;;5009386;28;20335;-72
2022/09/02 07:01:23;;;;;;;1.33;1.23;;;;;;;;;;5001544;28;20212;-68
2022/09/02 07:06:44;;;;;;;3.95;1.17;;;;;;;;;;5008892;28;20268;-69
2022/09/02 07:09:14;;;;;;;1.73;1.15;;;;;;;;;;4991988;28;20226;-69
2022/09/02 07:11:48;;;;;;;1.65;1.05;;;;;;;;;;4974896;28;20219;-73
2022/09/02 07:14:14;;;;;;;1.33;0.95;;;;;;;;;;4983262;28;20251;-71
2022/09/02 07:16:47;;;;;;;1.63;1.13;;;;;;;;;;5033386;28;20735;-70
2022/09/02 07:19:15;;;;;;;3.30;1.10;;;;;;;;;;5016482;28;20905;-72
2022/09/02 07:21:41;;;;;;;2.15;0.80;;;;;;;;;;4980400;28;20227;-71
2022/09/02 07:24:08;;;;;;;2.60;1.05;;;;;;;;;;5000295;28;20223;-69
2022/09/02 07:26:34;;;;;;;0.80;0.80;;;;;;;;;;5000948;28;20311;-70
2022/09/02 07:29:01;;;;;;;1.27;1.00;;;;;;;;;;5006037;28;20705;-70
2022/09/02 07:31:28;;;;;;;1.33;0.90;;;;;;;;;;4988958;28;20215;-71
2022/09/02 07:33:57;;;;;;;2.03;1.15;;;;;;;;;;5002274;28;20227;-72
2022/09/02 07:36:27;;;;;;;0.77;0.77;;;;;;;;;;4993227;28;20357;-71
2022/09/02 07:38:54;;;;;;;1.25;0.82;;;;;;;;;;4988022;28;20595;-71
2022/09/02 07:41:21;;;;;;;1.52;0.90;;;;;;;;;;4987353;28;20227;-70
2022/09/02 07:43:49;;;;;;;2.15;1.10;;;;;;;;;;4988525;28;20278;-71
2022/09/02 07:46:15;;;;;;;3.70;1.20;;;;;;;;;;5006631;28;20235;-70
2022/09/02 07:48:43;;;;;;;1.30;0.90;;;;;;;;;;4994175;28;20266;-71
2022/09/02 07:51:10;;;;;;;1.27;0.82;;;;;;;;;;5013256;28;20729;-72
2022/09/02 07:53:38;;;;;;;0.88;0.88;;;;;;;;;;5038117;28;20226;-73
2022/09/02 07:56:04;;;;;;;1.67;0.93;;;;;;;;;;5003340;28;20320;-73
2022/09/02 07:58:32;;;;;;;0.80;0.80;;;;;;;;;;4986486;28;20259;-72
2022/09/02 08:01:00;;;;;;;0.90;0.90;;;;;;;;;;4983173;28;20220;-73
2022/09/02 08:03:26;;;;;;;1.02;0.93;;;;;;;;;;5007247;28;20309;-71
2022/09/02 08:05:56;;;;;;;1.10;0.98;;;;;;;;;;5003730;28;20334;-73
2022/09/02 08:08:22;;;;;;;2.50;0.90;;;;;;;;;;4993268;28;20308;-72
2022/09/02 08:10:51;;;;;;;1.95;0.80;;;;;;;;;;5021552;28;20964;-72
2022/09/02 08:13:16;;;;;;;3.10;1.00;;;;;;;;;;5005419;28;20220;-72
2022/09/02 08:15:42;;;;;;;1.38;1.10;;;;;;;;;;5006656;28;20289;-71
2022/09/02 08:18:10;;;;;;;1.02;1.00;;;;;;;;;;4987950;28;20227;-71
2022/09/02 08:20:35;;;;;;;1.33;1.10;;;;;;;;;;5022610;28;20300;-71
2022/09/02 08:23:03;;;;;;;1.20;1.00;;;;;;;;;;5037021;28;20215;-71
2022/09/02 08:25:28;;;;;;;1.27;0.80;;;;;;;;;;5030602;28;20293;-72
2022/09/02 08:27:54;;;;;;;1.17;1.08;;;;;;;;;;5008041;28;20228;-72
2022/09/02 08:30:19;;;;;;;1.73;0.95;;;;;;;;;;5008788;28;20220;-71
2022/09/02 08:32:45;;;;;;;1.75;1.05;;;;;;;;;;5009547;28;20230;-71
2022/09/02 08:35:11;;;;;;;2.75;1.00;;;;;;;;;;5010365;28;20220;-72
2022/09/02 08:37:36;;;;;;;1.33;0.90;;;;;;;;;;5004449;28;20638;-73
2022/09/02 08:40:04;;;;;;;1.75;1.00;;;;;;;;;;5005743;28;20278;-72
2022/09/02 08:42:33;;;;;;;1.25;0.80;;;;;;;;;;4999434;28;20962;-74
2022/09/02 08:45:17;;;;;;;1.58;0.85;;;;;;;;;;5022703;28;20741;-71
2022/09/02 08:47:46;;;;;;;1.98;1.33;;;;;;;;;;5001526;28;20773;-72
2022/09/02 08:50:14;;;;;;;2.03;0.90;;;;;;;;;;4988806;28;20219;-71
2022/09/02 08:53:17;;;;;;;1.25;0.80;;;;;;;;;;5019917;28;20715;-72
2022/09/02 08:55:49;;;;;;;2.05;0.70;;;;;;;;;;5020298;28;20224;-72
2022/09/02 08:58:17;;;;;;;2.38;0.85;;;;;;;;;;5022771;28;20231;-71
2022/09/02 09:00:46;;;;;;;1.33;0.70;;;;;;;;;;5020551;28;20674;-71
2022/09/02 09:03:15;;;;;;;1.65;0.80;;;;;;;;;;5004515;28;20787;-72
2022/09/02 09:06:04;;;;;;;1.52;0.80;;;;;;;;;;5020412;28;20598;-72
2022/09/02 09:08:32;;;;;;;1.05;0.68;;;;;;;;;;5006605;28;20842;-72
2022/09/02 09:11:00;;;;;;;0.82;0.70;;;;;;;;;;4990750;28;20653;-72
2022/09/02 09:13:39;;;;;;;0.70;0.70;;;;;;;;;;5039080;28;20247;-71
2022/09/02 09:16:31;;;;;;;1.25;0.80;;;;;;;;;;5016667;28;20238;-71
2022/09/02 09:19:06;;;;;;;1.20;0.90;;;;;;;;;;5019185;28;20326;-71
2022/09/02 09:21:32;;;;;;;3.67;1.08;;;;;;;;;;5011628;28;20219;-70
2022/09/02 09:24:00;;;;;;;3.88;1.08;;;;;;;;;;5006719;28;20223;-73
2022/09/02 09:26:29;;;;;;;2.05;0.90;;;;;;;;;;5002019;28;20274;-72
2022/09/02 09:29:00;;;;;;;0.93;0.60;;;;;;;;;;5021554;28;20224;-72
2022/09/02 09:31:29;;;;;;;1.77;0.80;;;;;;;;;;5023452;28;20340;-72
2022/09/02 09:34:09;;;;;;;2.13;0.90;;;;;;;;;;5013784;28;20251;-72
2022/09/02 09:36:38;;;;;;;1.27;0.80;;;;;;;;;;5021860;28;20968;-71
2022/09/02 09:39:21;;;;;;;1.17;0.90;;;;;;;;;;5022875;28;20713;-72
2022/09/02 09:41:50;;;;;;;3.67;0.80;;;;;;;;;;5001865;28;20965;-72
2022/09/02 09:44:36;;;;;;;2.35;0.95;;;;;;;;;;5028774;28;20215;-72
2022/09/02 09:47:13;;;;;;;1.98;1.00;;;;;;;;;;5035186;28;20231;-72
2022/09/02 09:49:41;;;;;;;1.27;1.00;;;;;;;;;;5002100;28;20226;-71
2022/09/02 09:52:06;;;;;;;2.25;0.85;;;;;;;;;;5004367;28;20604;-72
2022/09/02 09:54:32;;;;;;;0.80;0.80;;;;;;;;;;5006146;28;20207;-70
2022/09/02 09:57:20;;;;;;;1.45;1.05;;;;;;;;;;5004753;28;20220;-71
2022/09/02 09:59:48;;;;;;;2.00;0.77;;;;;;;;;;5010486;28;20282;-71
2022/09/02 10:02:21;;;;;;;2.10;1.05;;;;;;;;;;4988566;28;20315;-72
2022/09/02 10:04:47;;;;;;;0.93;0.80;;;;;;;;;;5013390;28;20211;-70
2022/09/02 10:07:12;;;;;;;0.98;0.70;;;;;;;;;;5010298;28;20619;-69
2022/09/02 10:09:46;;;;;;;1.45;0.80;;;;;;;;;;5041840;28;20226;-70
2022/09/02 10:12:13;;;;;;;0.80;0.80;;;;;;;;;;5003240;28;20215;-72
2022/09/02 10:14:43;;;;;;;1.75;0.88;;;;;;;;;;5007964;28;20720;-71
2022/09/02 10:17:20;;;;;;;1.77;0.90;;;;;;;;;;5021456;28;20227;-70
2022/09/02 10:20:15;;;;;;;1.13;0.70;;;;;;;;;;5010464;28;20228;-70
2022/09/02 10:22:46;;;;;;;5.07;1.13;;;;;;;;;;5032934;28;20247;-70
2022/09/02 10:25:23;;;;;;;1.88;0.80;;;;;;;;;;5019992;28;20266;-71
2022/09/02 10:28:13;;;;;;;2.05;0.98;;;;;;;;;;5018903;28;21014;-72
2022/09/02 10:30:42;;;;;;;2.85;1.08;;;;;;;;;;5020701;28;20258;-72
2022/09/02 10:33:26;;;;;;;2.60;0.90;;;;;;;;;;5035802;28;20219;-71
2022/09/02 10:36:13;;;;;;;1.75;0.90;;;;;;;;;;5033678;28;20253;-72
2022/09/02 10:38:43;;;;;;;3.78;1.20;;;;;;;;;;5002856;28;20224;-74
2022/09/02 10:41:21;;;;;;;3.38;1.23;;;;;;;;;;5014397;28;20230;-73
2022/09/02 10:44:02;;;;;;;1.45;1.00;;;;;;;;;;5018917;28;20226;-73
2022/09/02 10:46:31;;;;;;;3.45;1.00;;;;;;;;;;5008823;28;20235;-73
2022/09/02 10:49:04;;;;;;;1.45;0.77;;;;;;;;;;5009166;28;20243;-73
2022/09/02 10:51:45;;;;;;;2.55;0.90;;;;;;;;;;5017515;28;20242;-73
2022/09/02 10:54:12;;;;;;;1.45;0.80;;;;;;;;;;5019727;28;20696;-72
2022/09/02 10:56:44;;;;;;;0.68;0.68;;;;;;;;;;5007134;28;20231;-72
2022/09/02 10:59:15;;;;;;;0.70;0.70;;;;;;;;;;5009316;28;20226;-71
2022/09/02 11:01:54;;;;;;;1.35;0.73;;;;;;;;;;5002470;28;20756;-72
2022/09/02 11:04:41;;;;;;;0.93;0.88;;;;;;;;;;4983905;28;20227;-72
2022/09/02 11:07:12;;;;;;;0.70;0.70;;;;;;;;;;5037531;28;20231;-71
2022/09/02 11:09:53;;;;;;;1.52;0.80;;;;;;;;;;4966612;28;20224;-73
2022/09/02 11:12:21;;;;;;;0.95;0.90;;;;;;;;;;4987048;28;20223;-73
2022/09/02 11:14:59;;;;;;;1.23;0.90;;;;;;;;;;5032765;28;20223;-73
2022/09/02 11:17:25;;;;;;;0.85;0.85;;;;;;;;;;5038192;28;20230;-72
2022/09/02 11:19:52;;;;;;;1.10;0.95;;;;;;;;;;5017029;28;20235;-72
2022/09/02 11:22:53;;;;;;;0.98;0.70;;;;;;;;;;5032715;28;20239;-72
2022/09/02 11:25:44;;;;;;;0.80;0.68;;;;;;;;;;5020997;28;21109;-72
2022/09/02 11:28:11;;;;;;;3.08;0.88;;;;;;;;;;5025906;28;20224;-73
2022/09/02 11:30:46;;;;;;;1.10;0.93;;;;;;;;;;5021088;28;20685;-72
2022/09/02 11:33:25;;;;;;;1.55;0.88;;;;;;;;;;5006305;28;20220;-73
2022/09/02 11:35:50;;;;;;;1.02;0.93;;;;;;;;;;4977167;28;20218;-73
2022/09/02 11:38:35;;;;;;;0.77;0.70;;;;;;;;;;5015475;28;20634;-73
2022/09/02 11:41:10;;;;;;;2.33;0.90;;;;;;;;;;5014060;28;20227;-72
2022/09/02 11:43:45;;;;;;;1.27;0.93;;;;;;;;;;5022761;28;20223;-73
2022/09/02 11:46:35;;;;;;;0.60;0.60;;;;;;;;;;5008559;28;20223;-72
2022/09/02 11:49:10;;;;;;;1.50;0.80;;;;;;;;;;5028003;28;20228;-73
2022/09/02 11:51:38;;;;;;;1.70;0.75;;;;;;;;;;5038019;28;20226;-73
2022/09/02 11:54:06;;;;;;;1.75;0.95;;;;;;;;;;5033584;28;20746;-73
2022/09/02 11:56:39;;;;;;;1.02;0.82;;;;;;;;;;5024469;28;20219;-73
2022/09/02 11:59:05;;;;;;;2.30;0.98;;;;;;;;;;5008954;28;20228;-73
2022/09/02 12:01:50;;;;;;;7.78;1.50;;;;;;;;;;5006601;28;20216;-72
2022/09/02 12:04:17;;;;;;;1.50;0.80;;;;;;;;;;5039506;28;20234;-72
2022/09/02 12:07:11;;;;;;;3.20;0.80;;;;;;;;;;5025729;28;20234;-73
2022/09/02 12:09:51;;;;;;;0.93;0.70;;;;;;;;;;5026575;28;20990;-73
2022/09/02 12:12:35;;;;;;;0.85;0.85;;;;;;;;;;5002354;28;20239;-72
2022/09/02 12:15:10;;;;;;;1.40;0.90;;;;;;;;;;5038820;28;20251;-72
2022/09/02 12:17:48;;;;;;;5.28;1.02;;;;;;;;;;5003400;28;20322;-71
2022/09/02 12:20:40;;;;;;;1.80;1.00;;;;;;;;;;5016969;28;20370;-71
2022/09/02 12:23:06;;;;;;;1.40;0.90;;;;;;;;;;5035597;28;20219;-71
2022/09/02 12:25:50;;;;;;;1.02;0.98;;;;;;;;;;4991247;28;20228;-73
2022/09/02 12:28:26;;;;;;;1.67;0.90;;;;;;;;;;5017601;28;20653;-73
2022/09/02 12:31:00;;;;;;;2.25;1.00;;;;;;;;;;4979737;28;20305;-72
2022/09/02 12:33:45;;;;;;;1.50;0.90;;;;;;;;;;5032790;28;20220;-75
2022/09/02 12:36:35;;;;;;;1.00;0.90;;;;;;;;;;4995923;28;20237;-73
2022/09/02 12:39:21;;;;;;;2.97;1.02;;;;;;;;;;5036311;28;20227;-74
2022/09/02 12:41:48;;;;;;;1.52;0.90;;;;;;;;;;5035380;28;20949;-73
2022/09/02 12:44:38;;;;;;;1.30;0.90;;;;;;;;;;5002305;28;20220;-72
2022/09/02 12:47:19;;;;;;;1.83;0.90;;;;;;;;;;5040181;28;20223;-73
2022/09/02 12:50:03;;;;;;;1.27;0.90;;;;;;;;;;5037077;28;20280;-72
2022/09/02 12:52:35;;;;;;;1.00;0.80;;;;;;;;;;5006239;28;20228;-72
2022/09/02 12:55:20;;;;;;;1.10;0.98;;;;;;;;;;5019860;28;20234;-73
2022/09/02 12:57:50;;;;;;;1.77;0.80;;;;;;;;;;5025219;28;20219;-73
2022/09/02 13:00:32;;;;;;;3.47;1.10;;;;;;;;;;5026740;28;20286;-71
2022/09/02 13:03:35;;;;;;;2.25;1.00;;;;;;;;;;5014511;28;20251;-74
2022/09/02 13:06:19;;;;;;;1.50;0.80;;;;;;;;;;5019728;28;20234;-75
2022/09/02 13:08:53;;;;;;;3.53;1.00;;;;;;;;;;5011430;28;20232;-71
2022/09/02 13:11:24;;;;;;;2.50;0.90;;;;;;;;;;5041055;28;20712;-73
2022/09/02 13:14:23;;;;;;;1.80;0.60;;;;;;;;;;5018414;28;20290;-73
2022/09/02 13:17:14;;;;;;;1.85;0.82;;;;;;;;;;5002349;28;20882;-73
2022/09/02 13:19:51;;;;;;;1.48;0.88;;;;;;;;;;5036317;28;20238;-71
2022/09/02 13:22:19;;;;;;;0.85;0.80;;;;;;;;;;5035716;28;20368;-73
2022/09/02 13:25:17;;;;;;;2.15;1.10;;;;;;;;;;5036989;28;20226;-73
2022/09/02 13:28:04;;;;;;;1.00;0.90;;;;;;;;;;5006312;28;20223;-73
2022/09/02 13:30:32;;;;;;;1.63;0.90;;;;;;;;;;5018569;28;20220;-73
2022/09/02 13:33:23;;;;;;;1.98;0.90;;;;;;;;;;5021359;28;20277;-73
2022/09/02 13:35:53;;;;;;;1.27;0.95;;;;;;;;;;4999462;28;20254;-72
2022/09/02 13:38:23;;;;;;;1.60;1.02;;;;;;;;;;5011852;28;20273;-72
2022/09/02 13:40:48;;;;;;;1.38;0.80;;;;;;;;;;5011005;28;20239;-72
2022/09/02 13:43:14;;;;;;;2.05;0.85;;;;;;;;;;4989555;28;20216;-73
2022/09/02 13:45:40;;;;;;;0.70;0.70;;;;;;;;;;5016782;28;20236;-73
2022/09/02 13:48:12;;;;;;;1.65;0.80;;;;;;;;;;5013062;28;20223;-73
2022/09/02 13:50:44;;;;;;;0.93;0.77;;;;;;;;;;4994108;28;20215;-73
2022/09/02 13:53:14;;;;;;;1.25;0.90;;;;;;;;;;4987183;28;20294;-74
2022/09/02 13:55:40;;;;;;;2.15;1.05;;;;;;;;;;4987198;28;20317;-73
2022/09/02 13:58:19;;;;;;;1.20;0.88;;;;;;;;;;5017314;28;20239;-74
2022/09/02 14:00:45;;;;;;;0.70;0.70;;;;;;;;;;5016887;28;20227;-73
2022/09/02 14:03:13;;;;;;;1.63;0.90;;;;;;;;;;5005418;28;20308;-74
2022/09/02 14:05:40;;;;;;;3.78;0.82;;;;;;;;;;5028658;28;20224;-73
2022/09/02 14:08:07;;;;;;;0.85;0.70;;;;;;;;;;5006116;28;20728;-74
2022/09/02 14:10:33;;;;;;;1.80;0.80;;;;;;;;;;5009241;28;20318;-73
2022/09/02 14:13:03;;;;;;;1.10;1.00;;;;;;;;;;5013206;28;20215;-73
2022/09/02 14:15:30;;;;;;;2.10;0.90;;;;;;;;;;5020278;28;20323;-73
2022/09/02 14:18:15;;;;;;;4.68;0.93;;;;;;;;;;5012897;28;20235;-74
2022/09/02 14:21:09;;;;;;;0.68;0.68;;;;;;;;;;4988397;28;20331;-71
2022/09/02 14:23:35;;;;;;;2.92;1.10;;;;;;;;;;5014377;28;20224;-73
2022/09/02 14:26:01;;;;;;;2.13;0.88;;;;;;;;;;4974764;28;20242;-73
2022/09/02 14:28:32;;;;;;;2.85;0.80;;;;;;;;;;4990662;28;20221;-72
2022/09/02 14:31:02;;;;;;;1.33;0.70;;;;;;;;;;5022340;28;20232;-72
2022/09/02 14:33:46;;;;;;;1.25;0.88;;;;;;;;;;5019432;28;20261;-72
2022/09/02 14:36:16;;;;;;;2.92;0.82;;;;;;;;;;5004535;28;20706;-72
2022/09/02 14:38:45;;;;;;;1.25;0.80;;;;;;;;;;5033370;28;20277;-73
2022/09/02 14:41:13;;;;;;;1.52;0.70;;;;;;;;;;5028865;28;20824;-73
2022/09/02 14:43:41;;;;;;;1.88;0.80;;;;;;;;;;4988133;28;20227;-73
2022/09/02 14:46:07;;;;;;;0.80;0.80;;;;;;;;;;5002073;28;20357;-72
2022/09/02 14:48:36;;;;;;;0.85;0.80;;;;;;;;;;5002299;28;20716;-73
2022/09/02 14:51:04;;;;;;;1.63;0.70;;;;;;;;;;5009655;28;20335;-73
2022/09/02 14:53:29;;;;;;;1.88;0.80;;;;;;;;;;5019618;28;20595;-73
2022/09/02 14:55:55;;;;;;;1.75;1.00;;;;;;;;;;5004462;28;20228;-72
2022/09/02 14:58:23;;;;;;;1.40;0.88;;;;;;;;;;5018195;28;20661;-73
2022/09/02 15:00:54;;;;;;;5.97;0.90;;;;;;;;;;5020934;28;20232;-73
2022/09/02 15:03:20;;;;;;;1.85;0.80;;;;;;;;;;5009276;28;20253;-73
2022/09/02 15:05:46;;;;;;;0.75;0.50;;;;;;;;;;5002336;28;20234;-73
2022/09/02 15:08:12;;;;;;;1.70;0.85;;;;;;;;;;4991397;28;20226;-72